Weather at Lone Butte Landing Strip [CLOSED]

Public forecast

Using degrees Fahrenheit for public forecast. Weather courtesy of forecast.io.

Closest aviation weather report (METAR) to Lone Butte Landing Strip

Report is more than 2 hours old.

Closest report is Chandler Municipal Airport, 6.6 nm (12.3 km) E. Retrieved 2021/03/09 03:47 UTC (5 hours ago):

KCHD 090347Z 21006KT 10SM SCT250 22/M06 A3001 RMK LAST

Closest aviation forecast (TAF) to Lone Butte Landing Strip

Forecast is more than 6 hours old.

Closest forecast is Phoenix Sky Harbor International Airport, 9.4 nm (17.4 km) NNW. Retrieved 2021-03-09 00:22 UTC (9 hours ago):

TAF KPHX 082320Z 0900/1006 24010KT P6SM SCT250 FM090800 VRB06KT P6SM OVC250 FM091200 12004KT P6SM BKN120 FM091700 19008KT P6SM SKC FM092000 24015G25KT P6SM SKC FM100400 27006KT P6SM SKC